sensor_id;sensor_type;location;lat;lon;timestamp;P1;durP1;ratioP1;P2;durP2;ratioP2
20456;SDS011;10387;51.102;6.848;2024-01-06T00:01:15;12.50;;;9.77;;
20456;SDS011;10387;51.102;6.848;2024-01-06T00:03:42;12.50;;;11.00;;
20456;SDS011;10387;51.102;6.848;2024-01-06T00:08:59;12.60;;;10.07;;
20456;SDS011;10387;51.102;6.848;2024-01-06T00:11:27;13.90;;;11.33;;
20456;SDS011;10387;51.102;6.848;2024-01-06T00:14:07;15.50;;;11.43;;
20456;SDS011;10387;51.102;6.848;2024-01-06T00:16:37;16.63;;;11.60;;
20456;SDS011;10387;51.102;6.848;2024-01-06T00:19:05;17.03;;;12.97;;
20456;SDS011;10387;51.102;6.848;2024-01-06T00:21:36;17.43;;;12.40;;
20456;SDS011;10387;51.102;6.848;2024-01-06T00:24:05;16.77;;;12.00;;
20456;SDS011;10387;51.102;6.848;2024-01-06T00:26:31;19.97;;;13.63;;
20456;SDS011;10387;51.102;6.848;2024-01-06T00:28:58;19.83;;;14.63;;
20456;SDS011;10387;51.102;6.848;2024-01-06T00:47:19;20.53;;;13.37;;
20456;SDS011;10387;51.102;6.848;2024-01-06T00:49:49;27.17;;;16.23;;
20456;SDS011;10387;51.102;6.848;2024-01-06T00:52:15;22.37;;;15.63;;
20456;SDS011;10387;51.102;6.848;2024-01-06T00:54:41;20.97;;;14.97;;
20456;SDS011;10387;51.102;6.848;2024-01-06T00:57:19;22.50;;;16.13;;
20456;SDS011;10387;51.102;6.848;2024-01-06T00:59:49;23.70;;;15.97;;
20456;SDS011;10387;51.102;6.848;2024-01-06T01:02:21;24.30;;;15.20;;
20456;SDS011;10387;51.102;6.848;2024-01-06T01:04:54;22.30;;;15.03;;
20456;SDS011;10387;51.102;6.848;2024-01-06T01:07:20;21.30;;;14.40;;
20456;SDS011;10387;51.102;6.848;2024-01-06T01:09:46;21.40;;;14.70;;
20456;SDS011;10387;51.102;6.848;2024-01-06T01:12:12;21.83;;;15.07;;
20456;SDS011;10387;51.102;6.848;2024-01-06T01:14:40;20.63;;;14.47;;
20456;SDS011;10387;51.102;6.848;2024-01-06T01:17:07;19.57;;;14.33;;
20456;SDS011;10387;51.102;6.848;2024-01-06T01:19:36;24.20;;;14.17;;
20456;SDS011;10387;51.102;6.848;2024-01-06T01:22:03;19.80;;;14.47;;
20456;SDS011;10387;51.102;6.848;2024-01-06T01:24:35;23.00;;;15.20;;
20456;SDS011;10387;51.102;6.848;2024-01-06T01:27:11;21.20;;;15.30;;
20456;SDS011;10387;51.102;6.848;2024-01-06T01:29:47;20.93;;;14.73;;
20456;SDS011;10387;51.102;6.848;2024-01-06T01:32:17;23.80;;;15.17;;
20456;SDS011;10387;51.102;6.848;2024-01-06T01:34:44;21.63;;;15.27;;
20456;SDS011;10387;51.102;6.848;2024-01-06T01:37:12;22.20;;;15.93;;
20456;SDS011;10387;51.102;6.848;2024-01-06T01:39:41;22.33;;;14.70;;
20456;SDS011;10387;51.102;6.848;2024-01-06T01:42:09;23.53;;;16.10;;
20456;SDS011;10387;51.102;6.848;2024-01-06T01:46:08;22.47;;;15.07;;
20456;SDS011;10387;51.102;6.848;2024-01-06T01:48:52;22.00;;;14.27;;
20456;SDS011;10387;51.102;6.848;2024-01-06T01:54:20;23.80;;;15.93;;
20456;SDS011;10387;51.102;6.848;2024-01-06T01:56:49;21.77;;;14.93;;
20456;SDS011;10387;51.102;6.848;2024-01-06T01:59:17;23.50;;;15.57;;
20456;SDS011;10387;51.102;6.848;2024-01-06T02:01:46;22.90;;;15.33;;
20456;SDS011;10387;51.102;6.848;2024-01-06T02:04:13;24.10;;;15.70;;
20456;SDS011;10387;51.102;6.848;2024-01-06T02:06:45;25.20;;;16.20;;
20456;SDS011;10387;51.102;6.848;2024-01-06T02:09:11;23.70;;;16.60;;
20456;SDS011;10387;51.102;6.848;2024-01-06T02:11:40;26.53;;;17.43;;
20456;SDS011;10387;51.102;6.848;2024-01-06T02:14:08;24.27;;;16.10;;
20456;SDS011;10387;51.102;6.848;2024-01-06T02:16:36;25.43;;;16.10;;
20456;SDS011;10387;51.102;6.848;2024-01-06T02:19:04;26.43;;;16.70;;
20456;SDS011;10387;51.102;6.848;2024-01-06T02:21:33;27.90;;;16.43;;
20456;SDS011;10387;51.102;6.848;2024-01-06T02:24:13;24.00;;;16.17;;
20456;SDS011;10387;51.102;6.848;2024-01-06T02:26:42;25.37;;;16.40;;
20456;SDS011;10387;51.102;6.848;2024-01-06T02:29:08;30.53;;;17.60;;
20456;SDS011;10387;51.102;6.848;2024-01-06T02:31:46;26.57;;;16.70;;
20456;SDS011;10387;51.102;6.848;2024-01-06T02:34:18;26.87;;;17.47;;
20456;SDS011;10387;51.102;6.848;2024-01-06T02:36:44;25.43;;;17.60;;
20456;SDS011;10387;51.102;6.848;2024-01-06T02:39:20;27.10;;;17.50;;
20456;SDS011;10387;51.102;6.848;2024-01-06T02:41:55;26.07;;;17.50;;
20456;SDS011;10387;51.102;6.848;2024-01-06T02:44:23;27.33;;;17.53;;
20456;SDS011;10387;51.102;6.848;2024-01-06T02:46:53;25.47;;;17.13;;
20456;SDS011;10387;51.102;6.848;2024-01-06T02:49:20;27.17;;;18.40;;
20456;SDS011;10387;51.102;6.848;2024-01-06T02:51:46;30.77;;;19.60;;
20456;SDS011;10387;51.102;6.848;2024-01-06T02:54:12;31.43;;;19.90;;
20456;SDS011;10387;51.102;6.848;2024-01-06T02:56:39;31.53;;;19.37;;
20456;SDS011;10387;51.102;6.848;2024-01-06T02:59:08;32.40;;;20.30;;
20456;SDS011;10387;51.102;6.848;2024-01-06T03:01:46;31.70;;;19.20;;
20456;SDS011;10387;51.102;6.848;2024-01-06T03:04:12;31.37;;;18.77;;
20456;SDS011;10387;51.102;6.848;2024-01-06T03:06:44;33.40;;;20.63;;
20456;SDS011;10387;51.102;6.848;2024-01-06T03:09:21;34.23;;;18.60;;
20456;SDS011;10387;51.102;6.848;2024-01-06T03:11:47;36.53;;;20.57;;
20456;SDS011;10387;51.102;6.848;2024-01-06T03:14:14;32.90;;;19.57;;
20456;SDS011;10387;51.102;6.848;2024-01-06T03:16:48;35.17;;;20.73;;
20456;SDS011;10387;51.102;6.848;2024-01-06T03:22:47;34.10;;;20.17;;
20456;SDS011;10387;51.102;6.848;2024-01-06T03:25:28;33.87;;;20.27;;
20456;SDS011;10387;51.102;6.848;2024-01-06T03:28:08;34.43;;;20.77;;
20456;SDS011;10387;51.102;6.848;2024-01-06T03:30:37;38.03;;;22.40;;
20456;SDS011;10387;51.102;6.848;2024-01-06T03:33:06;42.00;;;23.30;;
20456;SDS011;10387;51.102;6.848;2024-01-06T03:35:34;37.63;;;22.30;;
20456;SDS011;10387;51.102;6.848;2024-01-06T03:38:00;39.33;;;23.90;;
20456;SDS011;10387;51.102;6.848;2024-01-06T03:40:35;40.40;;;23.87;;
20456;SDS011;10387;51.102;6.848;2024-01-06T03:43:01;41.17;;;22.93;;
20456;SDS011;10387;51.102;6.848;2024-01-06T03:45:27;40.00;;;22.50;;
20456;SDS011;10387;51.102;6.848;2024-01-06T03:47:53;38.37;;;22.93;;
20456;SDS011;10387;51.102;6.848;2024-01-06T03:50:21;39.07;;;23.90;;
20456;SDS011;10387;51.102;6.848;2024-01-06T03:52:48;43.13;;;24.90;;
20456;SDS011;10387;51.102;6.848;2024-01-06T03:55:16;44.53;;;24.80;;
20456;SDS011;10387;51.102;6.848;2024-01-06T03:57:42;44.00;;;25.33;;
20456;SDS011;10387;51.102;6.848;2024-01-06T04:00:08;47.47;;;26.87;;
20456;SDS011;10387;51.102;6.848;2024-01-06T04:02:34;48.00;;;25.83;;
20456;SDS011;10387;51.102;6.848;2024-01-06T04:05:00;51.60;;;27.27;;
20456;SDS011;10387;51.102;6.848;2024-01-06T04:07:27;54.30;;;29.13;;
20456;SDS011;10387;51.102;6.848;2024-01-06T04:09:53;52.37;;;27.40;;
20456;SDS011;10387;51.102;6.848;2024-01-06T04:12:19;57.57;;;30.07;;
20456;SDS011;10387;51.102;6.848;2024-01-06T04:14:45;49.33;;;27.47;;
20456;SDS011;10387;51.102;6.848;2024-01-06T04:17:11;48.63;;;26.33;;
20456;SDS011;10387;51.102;6.848;2024-01-06T04:19:37;50.27;;;27.27;;
20456;SDS011;10387;51.102;6.848;2024-01-06T04:22:03;45.23;;;25.13;;
20456;SDS011;10387;51.102;6.848;2024-01-06T04:24:29;43.90;;;24.90;;
20456;SDS011;10387;51.102;6.848;2024-01-06T04:26:56;46.70;;;25.17;;
20456;SDS011;10387;51.102;6.848;2024-01-06T04:29:22;46.43;;;24.10;;
20456;SDS011;10387;51.102;6.848;2024-01-06T04:35:07;45.60;;;24.77;;
20456;SDS011;10387;51.102;6.848;2024-01-06T05:18:54;34.53;;;15.80;;
20456;SDS011;10387;51.102;6.848;2024-01-06T05:21:21;32.33;;;13.97;;
20456;SDS011;10387;51.102;6.848;2024-01-06T05:23:47;33.43;;;14.37;;
20456;SDS011;10387;51.102;6.848;2024-01-06T05:26:14;29.53;;;13.63;;
20456;SDS011;10387;51.102;6.848;2024-01-06T05:28:41;31.00;;;15.37;;
20456;SDS011;10387;51.102;6.848;2024-01-06T05:31:07;27.43;;;13.70;;
20456;SDS011;10387;51.102;6.848;2024-01-06T05:33:35;33.73;;;14.60;;
20456;SDS011;10387;51.102;6.848;2024-01-06T05:36:02;34.23;;;15.67;;
20456;SDS011;10387;51.102;6.848;2024-01-06T05:38:29;29.63;;;15.67;;
20456;SDS011;10387;51.102;6.848;2024-01-06T05:40:55;34.80;;;14.90;;
20456;SDS011;10387;51.102;6.848;2024-01-06T05:43:23;35.73;;;16.47;;
20456;SDS011;10387;51.102;6.848;2024-01-06T05:45:51;32.10;;;15.33;;
20456;SDS011;10387;51.102;6.848;2024-01-06T05:48:17;37.97;;;16.63;;
20456;SDS011;10387;51.102;6.848;2024-01-06T05:53:18;36.90;;;17.27;;
20456;SDS011;10387;51.102;6.848;2024-01-06T05:55:48;38.03;;;17.53;;
20456;SDS011;10387;51.102;6.848;2024-01-06T05:58:14;30.33;;;14.37;;
20456;SDS011;10387;51.102;6.848;2024-01-06T06:00:41;30.67;;;13.87;;
20456;SDS011;10387;51.102;6.848;2024-01-06T06:03:13;24.17;;;12.43;;
20456;SDS011;10387;51.102;6.848;2024-01-06T06:05:40;30.53;;;13.67;;
20456;SDS011;10387;51.102;6.848;2024-01-06T06:08:07;30.70;;;14.23;;
20456;SDS011;10387;51.102;6.848;2024-01-06T06:10:33;29.47;;;14.97;;
20456;SDS011;10387;51.102;6.848;2024-01-06T06:13:09;25.70;;;14.13;;
20456;SDS011;10387;51.102;6.848;2024-01-06T06:15:36;29.57;;;14.57;;
20456;SDS011;10387;51.102;6.848;2024-01-06T06:18:03;26.40;;;12.90;;
20456;SDS011;10387;51.102;6.848;2024-01-06T06:20:30;31.03;;;13.20;;
20456;SDS011;10387;51.102;6.848;2024-01-06T06:22:57;26.97;;;13.47;;
20456;SDS011;10387;51.102;6.848;2024-01-06T06:25:27;27.93;;;13.40;;
20456;SDS011;10387;51.102;6.848;2024-01-06T06:27:54;29.33;;;13.17;;
20456;SDS011;10387;51.102;6.848;2024-01-06T06:30:20;29.90;;;13.67;;
20456;SDS011;10387;51.102;6.848;2024-01-06T06:32:46;30.23;;;13.63;;
20456;SDS011;10387;51.102;6.848;2024-01-06T06:35:19;28.60;;;13.93;;
20456;SDS011;10387;51.102;6.848;2024-01-06T06:37:45;27.13;;;12.60;;
20456;SDS011;10387;51.102;6.848;2024-01-06T06:40:12;29.10;;;13.73;;
20456;SDS011;10387;51.102;6.848;2024-01-06T06:42:38;27.93;;;14.50;;
20456;SDS011;10387;51.102;6.848;2024-01-06T06:45:04;28.23;;;14.17;;
20456;SDS011;10387;51.102;6.848;2024-01-06T06:47:32;29.63;;;14.40;;
20456;SDS011;10387;51.102;6.848;2024-01-06T06:49:59;29.17;;;14.50;;
20456;SDS011;10387;51.102;6.848;2024-01-06T06:52:25;30.90;;;15.87;;
20456;SDS011;10387;51.102;6.848;2024-01-06T06:54:51;29.70;;;14.80;;
20456;SDS011;10387;51.102;6.848;2024-01-06T06:57:18;29.53;;;13.53;;
20456;SDS011;10387;51.102;6.848;2024-01-06T06:59:45;30.57;;;15.33;;
20456;SDS011;10387;51.102;6.848;2024-01-06T07:02:12;29.50;;;13.63;;
20456;SDS011;10387;51.102;6.848;2024-01-06T07:04:38;23.53;;;13.63;;
20456;SDS011;10387;51.102;6.848;2024-01-06T07:07:05;27.27;;;14.00;;
20456;SDS011;10387;51.102;6.848;2024-01-06T07:09:31;27.83;;;14.57;;
20456;SDS011;10387;51.102;6.848;2024-01-06T07:12:00;27.90;;;14.23;;
20456;SDS011;10387;51.102;6.848;2024-01-06T07:14:27;27.87;;;13.73;;
20456;SDS011;10387;51.102;6.848;2024-01-06T07:16:53;27.90;;;14.93;;
20456;SDS011;10387;51.102;6.848;2024-01-06T07:19:27;26.77;;;13.57;;
20456;SDS011;10387;51.102;6.848;2024-01-06T07:22:06;24.70;;;12.87;;
20456;SDS011;10387;51.102;6.848;2024-01-06T07:24:35;24.20;;;13.67;;
20456;SDS011;10387;51.102;6.848;2024-01-06T07:27:01;23.53;;;12.47;;
20456;SDS011;10387;51.102;6.848;2024-01-06T07:29:28;28.67;;;13.37;;
20456;SDS011;10387;51.102;6.848;2024-01-06T07:31:57;27.30;;;14.63;;
20456;SDS011;10387;51.102;6.848;2024-01-06T07:34:26;23.23;;;13.53;;
20456;SDS011;10387;51.102;6.848;2024-01-06T07:36:54;25.47;;;13.63;;
20456;SDS011;10387;51.102;6.848;2024-01-06T07:39:22;20.37;;;11.17;;
20456;SDS011;10387;51.102;6.848;2024-01-06T07:41:50;26.97;;;12.57;;
20456;SDS011;10387;51.102;6.848;2024-01-06T07:44:16;23.00;;;11.87;;
20456;SDS011;10387;51.102;6.848;2024-01-06T07:46:49;23.40;;;12.60;;
20456;SDS011;10387;51.102;6.848;2024-01-06T07:49:16;22.17;;;10.80;;
20456;SDS011;10387;51.102;6.848;2024-01-06T07:51:43;20.57;;;10.33;;
20456;SDS011;10387;51.102;6.848;2024-01-06T07:54:10;20.70;;;10.80;;
20456;SDS011;10387;51.102;6.848;2024-01-06T07:56:36;22.20;;;11.40;;
20456;SDS011;10387;51.102;6.848;2024-01-06T07:59:03;23.23;;;11.73;;
20456;SDS011;10387;51.102;6.848;2024-01-06T08:01:30;24.67;;;12.73;;
20456;SDS011;10387;51.102;6.848;2024-01-06T08:03:57;25.33;;;12.20;;
20456;SDS011;10387;51.102;6.848;2024-01-06T08:06:23;26.17;;;11.97;;
20456;SDS011;10387;51.102;6.848;2024-01-06T08:08:52;23.30;;;12.10;;
20456;SDS011;10387;51.102;6.848;2024-01-06T08:11:19;23.37;;;12.20;;
20456;SDS011;10387;51.102;6.848;2024-01-06T08:13:46;25.00;;;12.57;;
20456;SDS011;10387;51.102;6.848;2024-01-06T08:16:12;25.03;;;12.43;;
20456;SDS011;10387;51.102;6.848;2024-01-06T08:18:42;26.50;;;12.87;;
20456;SDS011;10387;51.102;6.848;2024-01-06T08:21:08;23.30;;;11.77;;
20456;SDS011;10387;51.102;6.848;2024-01-06T08:23:34;25.57;;;12.47;;
20456;SDS011;10387;51.102;6.848;2024-01-06T08:26:02;24.67;;;13.53;;
20456;SDS011;10387;51.102;6.848;2024-01-06T08:28:30;23.93;;;11.67;;
20456;SDS011;10387;51.102;6.848;2024-01-06T08:30:56;23.17;;;10.87;;
20456;SDS011;10387;51.102;6.848;2024-01-06T08:33:22;17.03;;;8.67;;
20456;SDS011;10387;51.102;6.848;2024-01-06T08:35:50;19.33;;;9.93;;
20456;SDS011;10387;51.102;6.848;2024-01-06T08:38:16;17.10;;;9.30;;
20456;SDS011;10387;51.102;6.848;2024-01-06T08:40:44;17.83;;;9.13;;
20456;SDS011;10387;51.102;6.848;2024-01-06T08:43:13;21.23;;;10.10;;
20456;SDS011;10387;51.102;6.848;2024-01-06T08:45:39;19.67;;;11.47;;
20456;SDS011;10387;51.102;6.848;2024-01-06T08:48:05;23.87;;;10.50;;
20456;SDS011;10387;51.102;6.848;2024-01-06T08:50:36;21.20;;;11.60;;
20456;SDS011;10387;51.102;6.848;2024-01-06T08:53:03;22.27;;;11.20;;
20456;SDS011;10387;51.102;6.848;2024-01-06T08:55:30;23.20;;;11.93;;
20456;SDS011;10387;51.102;6.848;2024-01-06T08:57:56;28.23;;;13.87;;
20456;SDS011;10387;51.102;6.848;2024-01-06T09:00:22;27.97;;;13.27;;
20456;SDS011;10387;51.102;6.848;2024-01-06T09:02:51;27.00;;;13.20;;
20456;SDS011;10387;51.102;6.848;2024-01-06T09:05:18;30.97;;;13.23;;
20456;SDS011;10387;51.102;6.848;2024-01-06T09:07:44;26.30;;;12.67;;
20456;SDS011;10387;51.102;6.848;2024-01-06T09:10:16;31.30;;;14.50;;
20456;SDS011;10387;51.102;6.848;2024-01-06T09:12:43;28.33;;;13.67;;
20456;SDS011;10387;51.102;6.848;2024-01-06T09:15:09;33.17;;;14.37;;
20456;SDS011;10387;51.102;6.848;2024-01-06T09:17:36;32.07;;;15.10;;
20456;SDS011;10387;51.102;6.848;2024-01-06T09:20:02;33.87;;;15.50;;
20456;SDS011;10387;51.102;6.848;2024-01-06T09:22:31;28.43;;;14.93;;
20456;SDS011;10387;51.102;6.848;2024-01-06T09:24:57;30.93;;;14.67;;
20456;SDS011;10387;51.102;6.848;2024-01-06T09:27:24;30.33;;;15.43;;
20456;SDS011;10387;51.102;6.848;2024-01-06T09:29:50;27.53;;;13.97;;
20456;SDS011;10387;51.102;6.848;2024-01-06T09:32:16;27.80;;;13.00;;
20456;SDS011;10387;51.102;6.848;2024-01-06T09:34:43;32.93;;;14.27;;
20456;SDS011;10387;51.102;6.848;2024-01-06T09:37:09;30.17;;;14.47;;
20456;SDS011;10387;51.102;6.848;2024-01-06T09:39:35;32.63;;;12.97;;
20456;SDS011;10387;51.102;6.848;2024-01-06T09:42:02;27.40;;;14.73;;
20456;SDS011;10387;51.102;6.848;2024-01-06T09:44:28;32.27;;;13.93;;
20456;SDS011;10387;51.102;6.848;2024-01-06T09:46:55;27.63;;;13.40;;
20456;SDS011;10387;51.102;6.848;2024-01-06T09:49:27;23.97;;;11.27;;
20456;SDS011;10387;51.102;6.848;2024-01-06T09:51:54;26.30;;;12.23;;
20456;SDS011;10387;51.102;6.848;2024-01-06T09:54:24;28.23;;;12.50;;
20456;SDS011;10387;51.102;6.848;2024-01-06T09:56:53;26.30;;;12.17;;
20456;SDS011;10387;51.102;6.848;2024-01-06T09:59:22;22.40;;;11.10;;
20456;SDS011;10387;51.102;6.848;2024-01-06T10:01:51;25.73;;;11.63;;
20456;SDS011;10387;51.102;6.848;2024-01-06T10:04:19;26.73;;;13.30;;
20456;SDS011;10387;51.102;6.848;2024-01-06T10:06:46;27.83;;;13.57;;
20456;SDS011;10387;51.102;6.848;2024-01-06T10:09:13;25.20;;;12.13;;
20456;SDS011;10387;51.102;6.848;2024-01-06T10:11:42;30.00;;;12.07;;
20456;SDS011;10387;51.102;6.848;2024-01-06T10:14:08;25.77;;;11.53;;
20456;SDS011;10387;51.102;6.848;2024-01-06T10:16:34;24.43;;;11.67;;
20456;SDS011;10387;51.102;6.848;2024-01-06T10:19:02;23.13;;;11.80;;
20456;SDS011;10387;51.102;6.848;2024-01-06T10:21:28;25.67;;;12.83;;
20456;SDS011;10387;51.102;6.848;2024-01-06T10:23:54;26.57;;;12.53;;
20456;SDS011;10387;51.102;6.848;2024-01-06T10:26:21;26.20;;;11.33;;
20456;SDS011;10387;51.102;6.848;2024-01-06T10:28:48;26.57;;;13.10;;
20456;SDS011;10387;51.102;6.848;2024-01-06T10:31:16;27.17;;;12.37;;
20456;SDS011;10387;51.102;6.848;2024-01-06T10:33:42;25.10;;;12.37;;
20456;SDS011;10387;51.102;6.848;2024-01-06T10:36:11;24.77;;;11.87;;
20456;SDS011;10387;51.102;6.848;2024-01-06T10:38:40;25.80;;;13.27;;
20456;SDS011;10387;51.102;6.848;2024-01-06T10:41:06;27.07;;;12.40;;
20456;SDS011;10387;51.102;6.848;2024-01-06T10:43:33;29.43;;;12.63;;
20456;SDS011;10387;51.102;6.848;2024-01-06T10:46:02;27.33;;;12.63;;
20456;SDS011;10387;51.102;6.848;2024-01-06T10:48:34;27.27;;;11.57;;
20456;SDS011;10387;51.102;6.848;2024-01-06T10:51:01;28.37;;;14.00;;
20456;SDS011;10387;51.102;6.848;2024-01-06T10:53:27;30.97;;;14.80;;
20456;SDS011;10387;51.102;6.848;2024-01-06T10:55:53;30.20;;;12.63;;
20456;SDS011;10387;51.102;6.848;2024-01-06T10:58:20;34.10;;;14.30;;
20456;SDS011;10387;51.102;6.848;2024-01-06T11:00:47;36.97;;;16.60;;
20456;SDS011;10387;51.102;6.848;2024-01-06T11:03:13;33.23;;;15.33;;
20456;SDS011;10387;51.102;6.848;2024-01-06T11:05:41;38.90;;;15.60;;
20456;SDS011;10387;51.102;6.848;2024-01-06T11:08:08;35.33;;;16.40;;
20456;SDS011;10387;51.102;6.848;2024-01-06T11:10:36;35.97;;;16.47;;
20456;SDS011;10387;51.102;6.848;2024-01-06T11:13:06;35.10;;;14.53;;
20456;SDS011;10387;51.102;6.848;2024-01-06T11:15:38;30.93;;;13.53;;
20456;SDS011;10387;51.102;6.848;2024-01-06T11:18:05;31.63;;;13.23;;
20456;SDS011;10387;51.102;6.848;2024-01-06T11:20:31;30.37;;;13.67;;
20456;SDS011;10387;51.102;6.848;2024-01-06T11:23:17;31.07;;;13.33;;
20456;SDS011;10387;51.102;6.848;2024-01-06T11:25:44;30.80;;;14.17;;
20456;SDS011;10387;51.102;6.848;2024-01-06T11:28:10;33.60;;;13.73;;
20456;SDS011;10387;51.102;6.848;2024-01-06T11:30:37;32.87;;;13.43;;
20456;SDS011;10387;51.102;6.848;2024-01-06T11:33:05;28.57;;;13.93;;
20456;SDS011;10387;51.102;6.848;2024-01-06T11:35:31;26.70;;;12.37;;
20456;SDS011;10387;51.102;6.848;2024-01-06T11:38:00;32.47;;;14.57;;
20456;SDS011;10387;51.102;6.848;2024-01-06T11:40:32;30.37;;;13.97;;
20456;SDS011;10387;51.102;6.848;2024-01-06T11:45:34;31.57;;;14.80;;
20456;SDS011;10387;51.102;6.848;2024-01-06T11:48:01;32.83;;;16.33;;
20456;SDS011;10387;51.102;6.848;2024-01-06T11:50:33;37.80;;;15.80;;
20456;SDS011;10387;51.102;6.848;2024-01-06T11:53:01;36.57;;;15.17;;
20456;SDS011;10387;51.102;6.848;2024-01-06T11:55:27;35.77;;;15.80;;
20456;SDS011;10387;51.102;6.848;2024-01-06T11:57:54;35.67;;;15.70;;
20456;SDS011;10387;51.102;6.848;2024-01-06T12:00:21;32.80;;;13.97;;
20456;SDS011;10387;51.102;6.848;2024-01-06T12:02:47;37.43;;;15.53;;
20456;SDS011;10387;51.102;6.848;2024-01-06T12:05:15;40.80;;;16.23;;
20456;SDS011;10387;51.102;6.848;2024-01-06T12:07:43;39.70;;;17.07;;
20456;SDS011;10387;51.102;6.848;2024-01-06T12:10:09;44.83;;;17.80;;
20456;SDS011;10387;51.102;6.848;2024-01-06T12:12:37;41.50;;;18.07;;
20456;SDS011;10387;51.102;6.848;2024-01-06T12:15:05;45.73;;;16.67;;
20456;SDS011;10387;51.102;6.848;2024-01-06T12:17:35;36.77;;;15.80;;
20456;SDS011;10387;51.102;6.848;2024-01-06T12:20:02;38.03;;;17.37;;
20456;SDS011;10387;51.102;6.848;2024-01-06T12:22:28;38.70;;;16.53;;
20456;SDS011;10387;51.102;6.848;2024-01-06T12:24:54;43.77;;;16.90;;
20456;SDS011;10387;51.102;6.848;2024-01-06T12:27:21;40.80;;;16.80;;
20456;SDS011;10387;51.102;6.848;2024-01-06T12:29:47;33.40;;;16.83;;
20456;SDS011;10387;51.102;6.848;2024-01-06T12:32:13;34.00;;;16.00;;
20456;SDS011;10387;51.102;6.848;2024-01-06T12:34:39;34.57;;;15.60;;
20456;SDS011;10387;51.102;6.848;2024-01-06T12:37:05;35.90;;;14.50;;
20456;SDS011;10387;51.102;6.848;2024-01-06T12:39:33;36.30;;;15.53;;
20456;SDS011;10387;51.102;6.848;2024-01-06T12:42:00;32.20;;;16.17;;
20456;SDS011;10387;51.102;6.848;2024-01-06T12:44:27;34.60;;;17.70;;
20456;SDS011;10387;51.102;6.848;2024-01-06T12:46:54;34.20;;;16.63;;
20456;SDS011;10387;51.102;6.848;2024-01-06T12:49:22;36.37;;;16.00;;
20456;SDS011;10387;51.102;6.848;2024-01-06T12:51:49;31.57;;;15.33;;
20456;SDS011;10387;51.102;6.848;2024-01-06T12:54:15;33.43;;;15.37;;
20456;SDS011;10387;51.102;6.848;2024-01-06T12:56:41;35.17;;;14.77;;
20456;SDS011;10387;51.102;6.848;2024-01-06T12:59:09;30.90;;;15.40;;
20456;SDS011;10387;51.102;6.848;2024-01-06T13:01:36;29.10;;;14.60;;
20456;SDS011;10387;51.102;6.848;2024-01-06T13:04:02;31.40;;;14.23;;
20456;SDS011;10387;51.102;6.848;2024-01-06T13:06:28;33.23;;;14.97;;
20456;SDS011;10387;51.102;6.848;2024-01-06T13:08:55;35.17;;;16.33;;
20456;SDS011;10387;51.102;6.848;2024-01-06T13:11:22;35.53;;;15.60;;
20456;SDS011;10387;51.102;6.848;2024-01-06T13:13:48;31.93;;;16.93;;
20456;SDS011;10387;51.102;6.848;2024-01-06T13:16:14;36.53;;;16.83;;
20456;SDS011;10387;51.102;6.848;2024-01-06T13:18:40;35.43;;;15.63;;
20456;SDS011;10387;51.102;6.848;2024-01-06T13:21:06;33.80;;;16.43;;
20456;SDS011;10387;51.102;6.848;2024-01-06T13:23:32;39.20;;;17.07;;
20456;SDS011;10387;51.102;6.848;2024-01-06T13:25:59;32.13;;;15.93;;
20456;SDS011;10387;51.102;6.848;2024-01-06T13:28:25;35.23;;;17.03;;
20456;SDS011;10387;51.102;6.848;2024-01-06T13:30:51;36.43;;;18.50;;
20456;SDS011;10387;51.102;6.848;2024-01-06T13:33:18;37.63;;;17.30;;
20456;SDS011;10387;51.102;6.848;2024-01-06T13:35:45;36.57;;;18.13;;
20456;SDS011;10387;51.102;6.848;2024-01-06T13:38:11;37.93;;;18.60;;
20456;SDS011;10387;51.102;6.848;2024-01-06T13:40:37;42.13;;;19.53;;
20456;SDS011;10387;51.102;6.848;2024-01-06T13:43:03;40.13;;;20.00;;
20456;SDS011;10387;51.102;6.848;2024-01-06T13:45:31;45.17;;;18.53;;
20456;SDS011;10387;51.102;6.848;2024-01-06T13:47:58;52.73;;;24.90;;
20456;SDS011;10387;51.102;6.848;2024-01-06T13:50:24;43.40;;;19.80;;
20456;SDS011;10387;51.102;6.848;2024-01-06T13:52:51;45.40;;;21.70;;
20456;SDS011;10387;51.102;6.848;2024-01-06T13:55:18;43.33;;;19.77;;
20456;SDS011;10387;51.102;6.848;2024-01-06T13:57:44;46.90;;;21.07;;
20456;SDS011;10387;51.102;6.848;2024-01-06T14:00:10;46.87;;;20.57;;
20456;SDS011;10387;51.102;6.848;2024-01-06T14:02:40;45.53;;;20.00;;
20456;SDS011;10387;51.102;6.848;2024-01-06T14:05:06;46.60;;;19.90;;
20456;SDS011;10387;51.102;6.848;2024-01-06T14:07:37;45.93;;;21.27;;
20456;SDS011;10387;51.102;6.848;2024-01-06T14:10:10;50.67;;;22.07;;
20456;SDS011;10387;51.102;6.848;2024-01-06T14:12:37;46.70;;;20.27;;
20456;SDS011;10387;51.102;6.848;2024-01-06T14:15:06;54.03;;;23.30;;
20456;SDS011;10387;51.102;6.848;2024-01-06T14:17:33;45.77;;;21.67;;
20456;SDS011;10387;51.102;6.848;2024-01-06T14:20:02;58.17;;;23.47;;
20456;SDS011;10387;51.102;6.848;2024-01-06T14:22:30;61.80;;;25.43;;
20456;SDS011;10387;51.102;6.848;2024-01-06T14:24:56;64.70;;;30.30;;
20456;SDS011;10387;51.102;6.848;2024-01-06T14:27:22;74.80;;;30.90;;
20456;SDS011;10387;51.102;6.848;2024-01-06T14:29:49;83.83;;;33.43;;
20456;SDS011;10387;51.102;6.848;2024-01-06T14:32:16;83.83;;;34.50;;
20456;SDS011;10387;51.102;6.848;2024-01-06T14:34:42;85.97;;;35.23;;
20456;SDS011;10387;51.102;6.848;2024-01-06T14:37:09;76.63;;;31.97;;
20456;SDS011;10387;51.102;6.848;2024-01-06T14:39:35;79.07;;;32.57;;
20456;SDS011;10387;51.102;6.848;2024-01-06T14:42:02;76.27;;;31.80;;
20456;SDS011;10387;51.102;6.848;2024-01-06T14:44:28;73.77;;;32.23;;
20456;SDS011;10387;51.102;6.848;2024-01-06T14:46:55;81.70;;;36.17;;
20456;SDS011;10387;51.102;6.848;2024-01-06T14:49:21;84.43;;;36.10;;
20456;SDS011;10387;51.102;6.848;2024-01-06T14:51:48;81.37;;;35.13;;
20456;SDS011;10387;51.102;6.848;2024-01-06T14:54:14;78.00;;;33.63;;
20456;SDS011;10387;51.102;6.848;2024-01-06T14:56:40;80.63;;;33.00;;
20456;SDS011;10387;51.102;6.848;2024-01-06T14:59:07;77.50;;;32.90;;
20456;SDS011;10387;51.102;6.848;2024-01-06T15:01:34;75.47;;;32.50;;
20456;SDS011;10387;51.102;6.848;2024-01-06T15:04:01;67.90;;;31.33;;
20456;SDS011;10387;51.102;6.848;2024-01-06T15:06:27;61.37;;;27.27;;
20456;SDS011;10387;51.102;6.848;2024-01-06T15:08:55;70.63;;;31.00;;
20456;SDS011;10387;51.102;6.848;2024-01-06T15:11:22;76.33;;;31.43;;
20456;SDS011;10387;51.102;6.848;2024-01-06T15:13:50;68.47;;;29.33;;
20456;SDS011;10387;51.102;6.848;2024-01-06T15:16:18;70.13;;;31.07;;
20456;SDS011;10387;51.102;6.848;2024-01-06T15:18:45;63.93;;;27.43;;
20456;SDS011;10387;51.102;6.848;2024-01-06T15:21:14;60.23;;;28.30;;
20456;SDS011;10387;51.102;6.848;2024-01-06T15:23:41;53.30;;;24.97;;
20456;SDS011;10387;51.102;6.848;2024-01-06T15:26:07;51.93;;;23.87;;
20456;SDS011;10387;51.102;6.848;2024-01-06T15:28:35;48.93;;;22.20;;
20456;SDS011;10387;51.102;6.848;2024-01-06T15:31:02;48.67;;;21.90;;
20456;SDS011;10387;51.102;6.848;2024-01-06T15:33:28;49.10;;;21.60;;
20456;SDS011;10387;51.102;6.848;2024-01-06T15:35:54;58.90;;;25.70;;
20456;SDS011;10387;51.102;6.848;2024-01-06T15:38:20;63.37;;;27.43;;
20456;SDS011;10387;51.102;6.848;2024-01-06T15:40:46;54.13;;;24.77;;